sensor_id;sensor_type;location;lat;lon;timestamp;temperature;humidity
7572;DHT22;3827;49.928;8.548;2023-05-02T00:01:15;12.80;99.90
7572;DHT22;3827;49.928;8.548;2023-05-02T00:03:42;12.70;99.90
7572;DHT22;3827;49.928;8.548;2023-05-02T00:06:09;12.60;99.90
7572;DHT22;3827;49.928;8.548;2023-05-02T00:08:37;12.50;99.90
7572;DHT22;3827;49.928;8.548;2023-05-02T00:11:04;12.40;99.90
7572;DHT22;3827;49.928;8.548;2023-05-02T00:13:32;12.40;99.90
7572;DHT22;3827;49.928;8.548;2023-05-02T00:15:59;12.60;99.90
7572;DHT22;3827;49.928;8.548;2023-05-02T00:18:26;12.20;99.90
7572;DHT22;3827;49.928;8.548;2023-05-02T00:20:54;12.10;99.90
7572;DHT22;3827;49.928;8.548;2023-05-02T00:23:21;12.10;99.90
7572;DHT22;3827;49.928;8.548;2023-05-02T00:25:48;12.00;99.90
7572;DHT22;3827;49.928;8.548;2023-05-02T00:28:15;12.00;99.90
7572;DHT22;3827;49.928;8.548;2023-05-02T00:30:44;11.90;99.90
7572;DHT22;3827;49.928;8.548;2023-05-02T00:33:11;11.90;99.90
7572;DHT22;3827;49.928;8.548;2023-05-02T00:35:39;11.90;99.90
7572;DHT22;3827;49.928;8.548;2023-05-02T00:38:06;11.80;99.90
7572;DHT22;3827;49.928;8.548;2023-05-02T00:40:42;11.90;99.90
7572;DHT22;3827;49.928;8.548;2023-05-02T00:43:10;11.90;99.90
7572;DHT22;3827;49.928;8.548;2023-05-02T00:45:37;12.00;99.90
7572;DHT22;3827;49.928;8.548;2023-05-02T00:48:07;12.00;99.90
7572;DHT22;3827;49.928;8.548;2023-05-02T00:50:36;12.00;99.90
7572;DHT22;3827;49.928;8.548;2023-05-02T00:53:04;11.90;99.90
7572;DHT22;3827;49.928;8.548;2023-05-02T00:55:31;11.90;99.90
7572;DHT22;3827;49.928;8.548;2023-05-02T00:57:59;11.90;99.90
7572;DHT22;3827;49.928;8.548;2023-05-02T01:00:38;11.90;99.90
7572;DHT22;3827;49.928;8.548;2023-05-02T01:03:16;12.00;99.90
7572;DHT22;3827;49.928;8.548;2023-05-02T01:05:56;11.90;99.90
7572;DHT22;3827;49.928;8.548;2023-05-02T01:08:33;11.90;99.90
7572;DHT22;3827;49.928;8.548;2023-05-02T01:11:10;11.90;99.90
7572;DHT22;3827;49.928;8.548;2023-05-02T01:13:42;11.90;99.90
7572;DHT22;3827;49.928;8.548;2023-05-02T01:16:11;11.90;99.90
7572;DHT22;3827;49.928;8.548;2023-05-02T01:18:42;11.80;99.90
7572;DHT22;3827;49.928;8.548;2023-05-02T01:21:10;11.90;99.90
7572;DHT22;3827;49.928;8.548;2023-05-02T01:23:44;11.90;99.90
7572;DHT22;3827;49.928;8.548;2023-05-02T01:26:19;11.90;99.90
7572;DHT22;3827;49.928;8.548;2023-05-02T01:29:01;11.90;99.90
7572;DHT22;3827;49.928;8.548;2023-05-02T01:31:30;11.90;99.90
7572;DHT22;3827;49.928;8.548;2023-05-02T01:33:59;11.80;99.90
7572;DHT22;3827;49.928;8.548;2023-05-02T01:36:28;11.70;99.90
7572;DHT22;3827;49.928;8.548;2023-05-02T01:38:56;11.60;99.90
7572;DHT22;3827;49.928;8.548;2023-05-02T01:41:26;11.60;99.90
7572;DHT22;3827;49.928;8.548;2023-05-02T01:43:55;11.60;99.90
7572;DHT22;3827;49.928;8.548;2023-05-02T01:46:24;11.50;99.90
7572;DHT22;3827;49.928;8.548;2023-05-02T01:48:52;11.50;99.90
7572;DHT22;3827;49.928;8.548;2023-05-02T01:51:25;11.50;99.90
7572;DHT22;3827;49.928;8.548;2023-05-02T01:53:55;11.40;99.90
7572;DHT22;3827;49.928;8.548;2023-05-02T01:56:24;11.30;99.90
7572;DHT22;3827;49.928;8.548;2023-05-02T01:58:52;11.20;99.90
7572;DHT22;3827;49.928;8.548;2023-05-02T02:01:23;11.20;99.90
7572;DHT22;3827;49.928;8.548;2023-05-02T02:03:53;12.80;99.90
7572;DHT22;3827;49.928;8.548;2023-05-02T02:06:20;11.10;99.90
7572;DHT22;3827;49.928;8.548;2023-05-02T02:08:47;11.00;99.90
7572;DHT22;3827;49.928;8.548;2023-05-02T02:11:17;11.00;99.90
7572;DHT22;3827;49.928;8.548;2023-05-02T02:13:54;10.90;99.90
7572;DHT22;3827;49.928;8.548;2023-05-02T02:16:29;10.90;99.90
7572;DHT22;3827;49.928;8.548;2023-05-02T02:18:56;10.90;99.90
7572;DHT22;3827;49.928;8.548;2023-05-02T02:21:25;10.90;99.90
7572;DHT22;3827;49.928;8.548;2023-05-02T02:23:56;10.90;99.90
7572;DHT22;3827;49.928;8.548;2023-05-02T02:26:25;10.80;99.90
7572;DHT22;3827;49.928;8.548;2023-05-02T02:28:51;10.80;99.90
7572;DHT22;3827;49.928;8.548;2023-05-02T02:31:19;10.70;99.90
7572;DHT22;3827;49.928;8.548;2023-05-02T02:33:47;10.80;99.90
7572;DHT22;3827;49.928;8.548;2023-05-02T02:36:18;10.80;99.90
7572;DHT22;3827;49.928;8.548;2023-05-02T02:38:51;9.70;99.90
7572;DHT22;3827;49.928;8.548;2023-05-02T02:41:25;10.80;99.90
7572;DHT22;3827;49.928;8.548;2023-05-02T02:43:59;11.00;99.90
7572;DHT22;3827;49.928;8.548;2023-05-02T02:49:28;11.00;99.90
7572;DHT22;3827;49.928;8.548;2023-05-02T02:52:02;11.00;99.90
7572;DHT22;3827;49.928;8.548;2023-05-02T02:54:34;11.00;99.90
7572;DHT22;3827;49.928;8.548;2023-05-02T02:57:11;10.90;99.90
7572;DHT22;3827;49.928;8.548;2023-05-02T02:59:44;10.90;99.90
7572;DHT22;3827;49.928;8.548;2023-05-02T03:02:14;10.90;99.90
7572;DHT22;3827;49.928;8.548;2023-05-02T03:04:46;10.90;99.90
7572;DHT22;3827;49.928;8.548;2023-05-02T03:07:13;10.90;99.90
7572;DHT22;3827;49.928;8.548;2023-05-02T03:09:41;10.90;99.90
7572;DHT22;3827;49.928;8.548;2023-05-02T03:12:07;10.80;99.90
7572;DHT22;3827;49.928;8.548;2023-05-02T03:14:34;10.70;99.90
7572;DHT22;3827;49.928;8.548;2023-05-02T03:17:02;11.00;99.90
7572;DHT22;3827;49.928;8.548;2023-05-02T03:19:29;10.70;99.90
7572;DHT22;3827;49.928;8.548;2023-05-02T03:21:57;10.70;99.90
7572;DHT22;3827;49.928;8.548;2023-05-02T03:24:23;10.70;99.90
7572;DHT22;3827;49.928;8.548;2023-05-02T03:26:53;11.00;99.90
7572;DHT22;3827;49.928;8.548;2023-05-02T03:29:20;10.70;99.90
7572;DHT22;3827;49.928;8.548;2023-05-02T03:31:47;10.60;99.90
7572;DHT22;3827;49.928;8.548;2023-05-02T03:34:14;10.60;99.90
7572;DHT22;3827;49.928;8.548;2023-05-02T03:36:41;10.60;99.90
7572;DHT22;3827;49.928;8.548;2023-05-02T03:39:09;10.60;99.90
7572;DHT22;3827;49.928;8.548;2023-05-02T03:41:36;10.60;99.90
7572;DHT22;3827;49.928;8.548;2023-05-02T03:44:03;10.50;99.90
7572;DHT22;3827;49.928;8.548;2023-05-02T03:46:30;10.50;99.90
7572;DHT22;3827;49.928;8.548;2023-05-02T03:48:57;10.50;99.90
7572;DHT22;3827;49.928;8.548;2023-05-02T03:51:24;10.40;99.90
7572;DHT22;3827;49.928;8.548;2023-05-02T03:53:51;10.40;99.90
7572;DHT22;3827;49.928;8.548;2023-05-02T03:56:19;10.40;99.90
7572;DHT22;3827;49.928;8.548;2023-05-02T03:58:46;10.40;99.90
7572;DHT22;3827;49.928;8.548;2023-05-02T04:01:14;10.40;99.90
7572;DHT22;3827;49.928;8.548;2023-05-02T04:03:40;10.40;99.90
7572;DHT22;3827;49.928;8.548;2023-05-02T04:06:07;10.60;99.90
7572;DHT22;3827;49.928;8.548;2023-05-02T04:08:34;10.40;99.90
7572;DHT22;3827;49.928;8.548;2023-05-02T04:11:01;10.40;99.90
7572;DHT22;3827;49.928;8.548;2023-05-02T04:13:29;10.40;99.90
7572;DHT22;3827;49.928;8.548;2023-05-02T04:15:56;10.40;99.90
7572;DHT22;3827;49.928;8.548;2023-05-02T04:18:23;10.40;99.90
7572;DHT22;3827;49.928;8.548;2023-05-02T04:20:50;10.30;99.90
7572;DHT22;3827;49.928;8.548;2023-05-02T04:23:16;10.30;99.90
7572;DHT22;3827;49.928;8.548;2023-05-02T04:25:50;10.30;99.90
7572;DHT22;3827;49.928;8.548;2023-05-02T04:28:17;10.40;99.90
7572;DHT22;3827;49.928;8.548;2023-05-02T04:30:45;10.40;99.90
7572;DHT22;3827;49.928;8.548;2023-05-02T04:33:12;10.60;99.90
7572;DHT22;3827;49.928;8.548;2023-05-02T04:35:39;10.60;99.90
7572;DHT22;3827;49.928;8.548;2023-05-02T04:38:06;10.60;99.90
7572;DHT22;3827;49.928;8.548;2023-05-02T04:40:33;10.70;99.90
7572;DHT22;3827;49.928;8.548;2023-05-02T04:43:00;10.60;99.90
7572;DHT22;3827;49.928;8.548;2023-05-02T04:45:27;10.60;99.90
7572;DHT22;3827;49.928;8.548;2023-05-02T04:47:55;10.60;99.90
7572;DHT22;3827;49.928;8.548;2023-05-02T04:50:22;10.70;99.90
7572;DHT22;3827;49.928;8.548;2023-05-02T04:52:49;10.80;99.90
7572;DHT22;3827;49.928;8.548;2023-05-02T04:55:15;10.90;99.90
7572;DHT22;3827;49.928;8.548;2023-05-02T04:57:42;11.00;99.90
7572;DHT22;3827;49.928;8.548;2023-05-02T05:00:10;11.00;99.90
7572;DHT22;3827;49.928;8.548;2023-05-02T05:02:37;11.10;99.90
7572;DHT22;3827;49.928;8.548;2023-05-02T05:05:06;11.20;99.90
7572;DHT22;3827;49.928;8.548;2023-05-02T05:07:33;11.20;99.90
7572;DHT22;3827;49.928;8.548;2023-05-02T05:10:00;11.30;99.90
7572;DHT22;3827;49.928;8.548;2023-05-02T05:12:26;11.30;99.90
7572;DHT22;3827;49.928;8.548;2023-05-02T05:14:53;11.30;99.90
7572;DHT22;3827;49.928;8.548;2023-05-02T05:17:20;11.50;99.90
7572;DHT22;3827;49.928;8.548;2023-05-02T05:19:47;11.40;99.90
7572;DHT22;3827;49.928;8.548;2023-05-02T05:22:15;10.40;99.90
7572;DHT22;3827;49.928;8.548;2023-05-02T05:24:42;11.50;99.90
7572;DHT22;3827;49.928;8.548;2023-05-02T05:27:16;11.50;99.90
7572;DHT22;3827;49.928;8.548;2023-05-02T05:29:42;11.50;99.90
7572;DHT22;3827;49.928;8.548;2023-05-02T05:32:09;11.50;99.90
7572;DHT22;3827;49.928;8.548;2023-05-02T05:34:36;11.50;99.90
7572;DHT22;3827;49.928;8.548;2023-05-02T05:37:05;11.60;99.90
7572;DHT22;3827;49.928;8.548;2023-05-02T05:39:33;11.70;99.90
7572;DHT22;3827;49.928;8.548;2023-05-02T05:42:00;11.60;99.90
7572;DHT22;3827;49.928;8.548;2023-05-02T05:44:27;11.60;99.90
7572;DHT22;3827;49.928;8.548;2023-05-02T05:46:53;11.60;99.90
7572;DHT22;3827;49.928;8.548;2023-05-02T05:49:20;11.70;99.90
7572;DHT22;3827;49.928;8.548;2023-05-02T05:51:48;11.70;99.90
7572;DHT22;3827;49.928;8.548;2023-05-02T05:54:16;11.80;99.90
7572;DHT22;3827;49.928;8.548;2023-05-02T05:56:44;11.70;99.90
7572;DHT22;3827;49.928;8.548;2023-05-02T05:59:11;11.90;99.90
7572;DHT22;3827;49.928;8.548;2023-05-02T06:01:38;11.90;99.90
7572;DHT22;3827;49.928;8.548;2023-05-02T06:04:05;11.90;99.90
7572;DHT22;3827;49.928;8.548;2023-05-02T06:06:33;12.00;99.90
7572;DHT22;3827;49.928;8.548;2023-05-02T06:09:00;12.10;99.90
7572;DHT22;3827;49.928;8.548;2023-05-02T06:11:27;12.30;99.90
7572;DHT22;3827;49.928;8.548;2023-05-02T06:13:55;12.20;99.90
7572;DHT22;3827;49.928;8.548;2023-05-02T06:16:22;12.20;99.90
7572;DHT22;3827;49.928;8.548;2023-05-02T06:18:50;12.30;99.90
7572;DHT22;3827;49.928;8.548;2023-05-02T06:21:18;12.30;99.90
7572;DHT22;3827;49.928;8.548;2023-05-02T06:23:45;12.30;99.90
7572;DHT22;3827;49.928;8.548;2023-05-02T06:26:12;12.30;99.90
7572;DHT22;3827;49.928;8.548;2023-05-02T06:28:38;12.30;99.90
7572;DHT22;3827;49.928;8.548;2023-05-02T06:31:07;12.40;99.90
7572;DHT22;3827;49.928;8.548;2023-05-02T06:33:33;12.40;99.90
7572;DHT22;3827;49.928;8.548;2023-05-02T06:36:01;12.40;99.90
7572;DHT22;3827;49.928;8.548;2023-05-02T06:38:28;12.40;99.90
7572;DHT22;3827;49.928;8.548;2023-05-02T06:40:55;12.80;99.90
7572;DHT22;3827;49.928;8.548;2023-05-02T06:43:22;12.70;99.90
7572;DHT22;3827;49.928;8.548;2023-05-02T06:45:51;12.80;99.90
7572;DHT22;3827;49.928;8.548;2023-05-02T06:48:20;12.80;99.90
7572;DHT22;3827;49.928;8.548;2023-05-02T06:50:47;12.90;99.90
7572;DHT22;3827;49.928;8.548;2023-05-02T06:53:14;12.80;99.90
7572;DHT22;3827;49.928;8.548;2023-05-02T06:55:40;12.80;99.90
7572;DHT22;3827;49.928;8.548;2023-05-02T06:58:07;12.70;99.90
7572;DHT22;3827;49.928;8.548;2023-05-02T07:00:34;13.00;99.90
7572;DHT22;3827;49.928;8.548;2023-05-02T07:03:01;12.90;99.90
7572;DHT22;3827;49.928;8.548;2023-05-02T07:05:29;13.00;99.90
7572;DHT22;3827;49.928;8.548;2023-05-02T07:07:56;13.10;99.90
7572;DHT22;3827;49.928;8.548;2023-05-02T07:10:24;13.10;99.90
7572;DHT22;3827;49.928;8.548;2023-05-02T07:12:50;13.20;99.90
7572;DHT22;3827;49.928;8.548;2023-05-02T07:15:17;13.30;99.90
7572;DHT22;3827;49.928;8.548;2023-05-02T07:17:44;13.40;99.90
7572;DHT22;3827;49.928;8.548;2023-05-02T07:20:12;13.60;99.90
7572;DHT22;3827;49.928;8.548;2023-05-02T07:22:41;13.70;99.90
7572;DHT22;3827;49.928;8.548;2023-05-02T07:25:08;13.80;99.90
7572;DHT22;3827;49.928;8.548;2023-05-02T07:27:35;13.70;99.90
7572;DHT22;3827;49.928;8.548;2023-05-02T07:30:03;13.60;99.90
7572;DHT22;3827;49.928;8.548;2023-05-02T07:32:30;13.70;99.90
7572;DHT22;3827;49.928;8.548;2023-05-02T07:34:57;13.90;99.90
7572;DHT22;3827;49.928;8.548;2023-05-02T07:37:24;14.00;99.90
7572;DHT22;3827;49.928;8.548;2023-05-02T07:39:52;14.00;99.90
7572;DHT22;3827;49.928;8.548;2023-05-02T07:42:19;13.90;99.90
7572;DHT22;3827;49.928;8.548;2023-05-02T07:44:46;13.80;99.90
7572;DHT22;3827;49.928;8.548;2023-05-02T07:47:12;13.90;99.90
7572;DHT22;3827;49.928;8.548;2023-05-02T07:49:39;14.20;99.90
7572;DHT22;3827;49.928;8.548;2023-05-02T07:52:06;14.50;99.90
7572;DHT22;3827;49.928;8.548;2023-05-02T07:54:33;14.70;99.90
7572;DHT22;3827;49.928;8.548;2023-05-02T07:57:01;14.60;99.90
7572;DHT22;3827;49.928;8.548;2023-05-02T07:59:29;14.80;99.90
7572;DHT22;3827;49.928;8.548;2023-05-02T08:01:56;14.20;99.90
7572;DHT22;3827;49.928;8.548;2023-05-02T08:04:23;14.30;99.90
7572;DHT22;3827;49.928;8.548;2023-05-02T08:06:50;14.10;99.90
7572;DHT22;3827;49.928;8.548;2023-05-02T08:09:17;14.10;99.90
7572;DHT22;3827;49.928;8.548;2023-05-02T08:11:44;14.10;99.90
7572;DHT22;3827;49.928;8.548;2023-05-02T08:14:12;14.40;99.90
7572;DHT22;3827;49.928;8.548;2023-05-02T08:16:39;14.20;99.90
7572;DHT22;3827;49.928;8.548;2023-05-02T08:19:06;14.20;99.90
7572;DHT22;3827;49.928;8.548;2023-05-02T08:21:32;14.40;99.90
7572;DHT22;3827;49.928;8.548;2023-05-02T08:24:00;14.50;99.90
7572;DHT22;3827;49.928;8.548;2023-05-02T08:26:27;14.00;99.90
7572;DHT22;3827;49.928;8.548;2023-05-02T08:28:54;14.00;99.90
7572;DHT22;3827;49.928;8.548;2023-05-02T08:31:22;13.90;99.90
7572;DHT22;3827;49.928;8.548;2023-05-02T08:33:49;13.90;99.90
7572;DHT22;3827;49.928;8.548;2023-05-02T08:36:17;13.80;99.90
7572;DHT22;3827;49.928;8.548;2023-05-02T08:38:45;13.80;99.90
7572;DHT22;3827;49.928;8.548;2023-05-02T08:41:13;13.90;99.90
7572;DHT22;3827;49.928;8.548;2023-05-02T08:43:41;13.80;99.90
7572;DHT22;3827;49.928;8.548;2023-05-02T08:46:09;14.10;99.90
7572;DHT22;3827;49.928;8.548;2023-05-02T08:48:40;14.40;99.90
7572;DHT22;3827;49.928;8.548;2023-05-02T08:51:08;14.60;99.90
7572;DHT22;3827;49.928;8.548;2023-05-02T08:53:36;14.80;99.90
7572;DHT22;3827;49.928;8.548;2023-05-02T08:56:04;14.40;99.90
7572;DHT22;3827;49.928;8.548;2023-05-02T08:58:32;14.40;99.90
7572;DHT22;3827;49.928;8.548;2023-05-02T09:01:00;14.40;99.90
7572;DHT22;3827;49.928;8.548;2023-05-02T09:03:29;14.30;99.90
7572;DHT22;3827;49.928;8.548;2023-05-02T09:06:05;14.10;99.90
7572;DHT22;3827;49.928;8.548;2023-05-02T09:08:32;14.30;99.90
7572;DHT22;3827;49.928;8.548;2023-05-02T09:11:00;14.60;99.90
7572;DHT22;3827;49.928;8.548;2023-05-02T09:13:32;14.50;99.90
7572;DHT22;3827;49.928;8.548;2023-05-02T09:16:01;14.60;99.90
7572;DHT22;3827;49.928;8.548;2023-05-02T09:18:29;14.60;99.90
7572;DHT22;3827;49.928;8.548;2023-05-02T09:20:57;14.40;99.90
7572;DHT22;3827;49.928;8.548;2023-05-02T09:23:36;14.10;99.90
7572;DHT22;3827;49.928;8.548;2023-05-02T09:26:14;14.00;99.90
7572;DHT22;3827;49.928;8.548;2023-05-02T09:28:42;14.20;99.90
7572;DHT22;3827;49.928;8.548;2023-05-02T09:31:11;14.20;99.90
7572;DHT22;3827;49.928;8.548;2023-05-02T09:33:39;14.30;99.90
7572;DHT22;3827;49.928;8.548;2023-05-02T09:36:08;14.60;99.90
7572;DHT22;3827;49.928;8.548;2023-05-02T09:38:37;14.90;99.90
7572;DHT22;3827;49.928;8.548;2023-05-02T09:41:04;15.10;99.90
7572;DHT22;3827;49.928;8.548;2023-05-02T09:43:31;15.20;99.90
7572;DHT22;3827;49.928;8.548;2023-05-02T09:45:59;15.10;99.90
7572;DHT22;3827;49.928;8.548;2023-05-02T09:48:27;15.80;99.90
7572;DHT22;3827;49.928;8.548;2023-05-02T09:50:55;16.20;99.90
7572;DHT22;3827;49.928;8.548;2023-05-02T09:53:25;14.10;99.90
7572;DHT22;3827;49.928;8.548;2023-05-02T09:56:03;16.40;99.90
7572;DHT22;3827;49.928;8.548;2023-05-02T09:58:30;16.80;99.90
7572;DHT22;3827;49.928;8.548;2023-05-02T10:00:58;17.30;99.90
7572;DHT22;3827;49.928;8.548;2023-05-02T10:03:26;17.40;99.90
7572;DHT22;3827;49.928;8.548;2023-05-02T10:05:54;17.10;99.90
7572;DHT22;3827;49.928;8.548;2023-05-02T10:08:23;16.10;99.90
7572;DHT22;3827;49.928;8.548;2023-05-02T10:10:53;16.10;99.90
7572;DHT22;3827;49.928;8.548;2023-05-02T10:13:23;16.50;99.90
7572;DHT22;3827;49.928;8.548;2023-05-02T10:15:57;16.50;99.90
7572;DHT22;3827;49.928;8.548;2023-05-02T10:18:31;16.90;99.90
7572;DHT22;3827;49.928;8.548;2023-05-02T10:21:04;16.80;99.90
7572;DHT22;3827;49.928;8.548;2023-05-02T10:23:32;17.00;99.90
7572;DHT22;3827;49.928;8.548;2023-05-02T10:26:00;17.40;99.90
7572;DHT22;3827;49.928;8.548;2023-05-02T10:28:29;16.90;99.90
7572;DHT22;3827;49.928;8.548;2023-05-02T10:30:57;17.10;99.90
7572;DHT22;3827;49.928;8.548;2023-05-02T10:33:25;16.20;99.90
7572;DHT22;3827;49.928;8.548;2023-05-02T10:35:53;16.10;99.90
7572;DHT22;3827;49.928;8.548;2023-05-02T10:38:21;15.80;99.90
7572;DHT22;3827;49.928;8.548;2023-05-02T10:40:52;15.70;99.90
7572;DHT22;3827;49.928;8.548;2023-05-02T10:43:22;15.40;99.90
7572;DHT22;3827;49.928;8.548;2023-05-02T10:45:51;15.50;99.90
7572;DHT22;3827;49.928;8.548;2023-05-02T10:48:20;15.40;99.90
7572;DHT22;3827;49.928;8.548;2023-05-02T10:50:49;15.60;99.90
7572;DHT22;3827;49.928;8.548;2023-05-02T10:53:28;16.20;99.90
7572;DHT22;3827;49.928;8.548;2023-05-02T10:56:15;17.10;99.90
7572;DHT22;3827;49.928;8.548;2023-05-02T10:58:43;18.10;99.90
7572;DHT22;3827;49.928;8.548;2023-05-02T11:04:10;19.00;99.90
7572;DHT22;3827;49.928;8.548;2023-05-02T11:09:43;16.80;99.90
7572;DHT22;3827;49.928;8.548;2023-05-02T11:12:09;16.40;99.90
7572;DHT22;3827;49.928;8.548;2023-05-02T11:14:46;16.30;99.90
7572;DHT22;3827;49.928;8.548;2023-05-02T11:17:15;17.20;99.90
7572;DHT22;3827;49.928;8.548;2023-05-02T11:23:18;18.30;99.90
7572;DHT22;3827;49.928;8.548;2023-05-02T11:25:48;17.90;99.90
7572;DHT22;3827;49.928;8.548;2023-05-02T11:28:42;18.90;99.90
7572;DHT22;3827;49.928;8.548;2023-05-02T11:34:31;19.20;99.90
7572;DHT22;3827;49.928;8.548;2023-05-02T11:37:10;20.10;99.90
7572;DHT22;3827;49.928;8.548;2023-05-02T11:39:39;21.00;99.90
7572;DHT22;3827;49.928;8.548;2023-05-02T11:42:06;21.30;99.90
7572;DHT22;3827;49.928;8.548;2023-05-02T11:44:33;21.10;99.90
7572;DHT22;3827;49.928;8.548;2023-05-02T11:47:01;21.10;99.90
7572;DHT22;3827;49.928;8.548;2023-05-02T11:49:28;21.60;99.90
7572;DHT22;3827;49.928;8.548;2023-05-02T11:51:55;20.90;99.90
7572;DHT22;3827;49.928;8.548;2023-05-02T11:54:24;19.80;99.90
7572;DHT22;3827;49.928;8.548;2023-05-02T11:56:52;19.70;99.90
7572;DHT22;3827;49.928;8.548;2023-05-02T11:59:19;20.10;99.90
7572;DHT22;3827;49.928;8.548;2023-05-02T12:01:48;20.00;99.90
7572;DHT22;3827;49.928;8.548;2023-05-02T12:04:18;21.10;99.90
7572;DHT22;3827;49.928;8.548;2023-05-02T12:06:55;22.30;99.90
7572;DHT22;3827;49.928;8.548;2023-05-02T12:09:22;22.70;99.90
7572;DHT22;3827;49.928;8.548;2023-05-02T12:11:52;22.60;99.90
7572;DHT22;3827;49.928;8.548;2023-05-02T12:14:26;21.60;99.90
7572;DHT22;3827;49.928;8.548;2023-05-02T12:16:53;21.80;99.90
7572;DHT22;3827;49.928;8.548;2023-05-02T12:19:20;22.20;99.90
7572;DHT22;3827;49.928;8.548;2023-05-02T12:21:47;21.70;99.90
7572;DHT22;3827;49.928;8.548;2023-05-02T12:24:15;21.50;99.90
7572;DHT22;3827;49.928;8.548;2023-05-02T12:26:42;20.60;99.90
7572;DHT22;3827;49.928;8.548;2023-05-02T12:29:10;20.60;99.90
7572;DHT22;3827;49.928;8.548;2023-05-02T12:31:37;19.80;99.90
7572;DHT22;3827;49.928;8.548;2023-05-02T12:34:04;18.60;99.90
7572;DHT22;3827;49.928;8.548;2023-05-02T12:36:31;18.20;99.90
7572;DHT22;3827;49.928;8.548;2023-05-02T12:39:00;18.00;99.90
7572;DHT22;3827;49.928;8.548;2023-05-02T12:41:33;17.90;99.90
7572;DHT22;3827;49.928;8.548;2023-05-02T12:44:00;17.70;99.90
7572;DHT22;3827;49.928;8.548;2023-05-02T12:46:29;17.00;99.90
7572;DHT22;3827;49.928;8.548;2023-05-02T12:49:03;16.50;99.90
7572;DHT22;3827;49.928;8.548;2023-05-02T12:51:30;16.20;99.90
7572;DHT22;3827;49.928;8.548;2023-05-02T12:53:58;16.30;99.90
7572;DHT22;3827;49.928;8.548;2023-05-02T12:56:25;16.30;99.90
7572;DHT22;3827;49.928;8.548;2023-05-02T12:58:57;16.00;99.90
7572;DHT22;3827;49.928;8.548;2023-05-02T13:01:26;15.70;99.90
7572;DHT22;3827;49.928;8.548;2023-05-02T13:03:54;15.90;99.90
7572;DHT22;3827;49.928;8.548;2023-05-02T13:06:21;15.90;99.90
7572;DHT22;3827;49.928;8.548;2023-05-02T13:08:48;16.00;99.90
7572;DHT22;3827;49.928;8.548;2023-05-02T13:11:14;16.20;99.90
7572;DHT22;3827;49.928;8.548;2023-05-02T13:13:42;16.30;99.90
7572;DHT22;3827;49.928;8.548;2023-05-02T13:16:09;16.40;99.90
7572;DHT22;3827;49.928;8.548;2023-05-02T13:18:35;16.50;99.90
7572;DHT22;3827;49.928;8.548;2023-05-02T13:21:04;16.70;99.90
7572;DHT22;3827;49.928;8.548;2023-05-02T13:23:30;16.50;99.90
7572;DHT22;3827;49.928;8.548;2023-05-02T13:25:57;16.60;99.90
7572;DHT22;3827;49.928;8.548;2023-05-02T13:28:24;16.70;99.90
7572;DHT22;3827;49.928;8.548;2023-05-02T13:30:52;16.80;99.90
7572;DHT22;3827;49.928;8.548;2023-05-02T13:33:18;16.90;99.90
7572;DHT22;3827;49.928;8.548;2023-05-02T13:35:45;16.80;99.90
7572;DHT22;3827;49.928;8.548;2023-05-02T13:38:13;16.80;99.90
7572;DHT22;3827;49.928;8.548;2023-05-02T13:40:40;16.90;99.90
7572;DHT22;3827;49.928;8.548;2023-05-02T13:43:07;17.20;99.90
7572;DHT22;3827;49.928;8.548;2023-05-02T13:45:34;17.50;99.90
7572;DHT22;3827;49.928;8.548;2023-05-02T13:48:01;17.50;99.90
7572;DHT22;3827;49.928;8.548;2023-05-02T13:50:27;17.30;99.90
7572;DHT22;3827;49.928;8.548;2023-05-02T13:52:54;17.20;99.90
7572;DHT22;3827;49.928;8.548;2023-05-02T13:55:25;17.00;99.90
7572;DHT22;3827;49.928;8.548;2023-05-02T13:57:52;17.10;99.90
7572;DHT22;3827;49.928;8.548;2023-05-02T14:00:19;17.00;99.90
7572;DHT22;3827;49.928;8.548;2023-05-02T14:02:46;17.00;99.90
7572;DHT22;3827;49.928;8.548;2023-05-02T14:05:13;16.90;99.90
7572;DHT22;3827;49.928;8.548;2023-05-02T14:07:40;17.00;99.90
7572;DHT22;3827;49.928;8.548;2023-05-02T14:10:08;16.90;99.90
7572;DHT22;3827;49.928;8.548;2023-05-02T14:12:36;17.20;99.90
7572;DHT22;3827;49.928;8.548;2023-05-02T14:15:03;17.50;99.90
7572;DHT22;3827;49.928;8.548;2023-05-02T14:17:31;17.70;99.90
7572;DHT22;3827;49.928;8.548;2023-05-02T14:19:57;18.00;99.90
7572;DHT22;3827;49.928;8.548;2023-05-02T14:22:24;18.00;99.90
7572;DHT22;3827;49.928;8.548;2023-05-02T14:24:51;17.80;99.90
7572;DHT22;3827;49.928;8.548;2023-05-02T14:27:18;17.50;99.90
7572;DHT22;3827;49.928;8.548;2023-05-02T14:29:46;17.60;99.90
7572;DHT22;3827;49.928;8.548;2023-05-02T14:32:13;17.40;99.90
7572;DHT22;3827;49.928;8.548;2023-05-02T14:34:40;17.40;99.90
7572;DHT22;3827;49.928;8.548;2023-05-02T14:37:07;17.60;99.90
7572;DHT22;3827;49.928;8.548;2023-05-02T14:39:34;19.30;99.90
7572;DHT22;3827;49.928;8.548;2023-05-02T14:42:01;17.30;99.90
7572;DHT22;3827;49.928;8.548;2023-05-02T14:44:29;17.40;99.90
7572;DHT22;3827;49.928;8.548;2023-05-02T14:46:57;17.40;99.90
7572;DHT22;3827;49.928;8.548;2023-05-02T14:49:24;16.90;99.90
7572;DHT22;3827;49.928;8.548;2023-05-02T14:51:51;17.00;99.90
7572;DHT22;3827;49.928;8.548;2023-05-02T14:54:17;17.20;99.90
7572;DHT22;3827;49.928;8.548;2023-05-02T14:56:44;17.40;99.90
7572;DHT22;3827;49.928;8.548;2023-05-02T14:59:11;18.50;99.90
7572;DHT22;3827;49.928;8.548;2023-05-02T15:01:38;19.40;99.90
7572;DHT22;3827;49.928;8.548;2023-05-02T15:04:06;19.30;99.90
7572;DHT22;3827;49.928;8.548;2023-05-02T15:06:33;18.30;99.90
7572;DHT22;3827;49.928;8.548;2023-05-02T15:09:00;18.00;99.90
7572;DHT22;3827;49.928;8.548;2023-05-02T15:11:27;17.90;99.90
7572;DHT22;3827;49.928;8.548;2023-05-02T15:13:54;18.30;99.90
7572;DHT22;3827;49.928;8.548;2023-05-02T15:16:21;18.70;99.90
7572;DHT22;3827;49.928;8.548;2023-05-02T15:18:48;18.80;99.90
7572;DHT22;3827;49.928;8.548;2023-05-02T15:21:16;18.80;99.90
7572;DHT22;3827;49.928;8.548;2023-05-02T15:23:43;18.30;99.90
7572;DHT22;3827;49.928;8.548;2023-05-02T15:26:10;18.20;99.90
7572;DHT22;3827;49.928;8.548;2023-05-02T15:28:38;18.10;99.90
7572;DHT22;3827;49.928;8.548;2023-05-02T15:31:05;18.50;99.90
7572;DHT22;3827;49.928;8.548;2023-05-02T15:33:31;18.80;99.90
7572;DHT22;3827;49.928;8.548;2023-05-02T15:38:40;18.40;99.90
7572;DHT22;3827;49.928;8.548;2023-05-02T15:41:08;18.70;99.90
7572;DHT22;3827;49.928;8.548;2023-05-02T15:43:35;18.70;99.90
7572;DHT22;3827;49.928;8.548;2023-05-02T15:46:02;18.40;99.90
7572;DHT22;3827;49.928;8.548;2023-05-02T15:48:30;17.80;99.90
7572;DHT22;3827;49.928;8.548;2023-05-02T15:50:59;17.80;99.90
7572;DHT22;3827;49.928;8.548;2023-05-02T15:53:26;17.80;99.90
7572;DHT22;3827;49.928;8.548;2023-05-02T15:55:54;17.80;99.90
7572;DHT22;3827;49.928;8.548;2023-05-02T15:58:21;18.20;99.90
7572;DHT22;3827;49.928;8.548;2023-05-02T16:00:47;17.60;99.90
7572;DHT22;3827;49.928;8.548;2023-05-02T16:03:16;17.20;99.90
7572;DHT22;3827;49.928;8.548;2023-05-02T16:05:43;17.60;99.90
7572;DHT22;3827;49.928;8.548;2023-05-02T16:08:10;17.80;99.90
7572;DHT22;3827;49.928;8.548;2023-05-02T16:10:37;18.00;99.90
7572;DHT22;3827;49.928;8.548;2023-05-02T16:13:06;17.60;99.90
7572;DHT22;3827;49.928;8.548;2023-05-02T16:15:32;17.60;99.90
7572;DHT22;3827;49.928;8.548;2023-05-02T16:17:59;17.20;99.90
7572;DHT22;3827;49.928;8.548;2023-05-02T16:20:26;17.40;99.90
7572;DHT22;3827;49.928;8.548;2023-05-02T16:22:53;17.40;99.90
7572;DHT22;3827;49.928;8.548;2023-05-02T16:25:20;17.60;99.90
7572;DHT22;3827;49.928;8.548;2023-05-02T16:27:47;17.70;99.90